Time;durP1;ratioP1;P1;durP2;ratioP2;P2;SDS_P1;SDS_P2;PMS_P1;PMS_P2;Temp;Humidity;BMP_temperature;BMP_pressure;BME280_temperature;BME280_humidity;BME280_pressure;Samples;Min_cycle;Max_cycle;Signal;HPM_P1;HPM_P2
2021/11/24 00:00:04;;;;;;;;;;;4.90;99.90;;;;;;5134569;27;19923;-49
2021/11/24 00:02:32;;;;;;;;;;;4.90;99.90;;;;;;5133870;27;19923;-49
2021/11/24 00:14:08;;;;;;;;;;;4.80;99.90;;;;;;5128042;27;20418;-50
2021/11/24 00:16:35;;;;;;;;;;;4.80;99.90;;;;;;5134590;27;19927;-50
2021/11/24 00:19:03;;;;;;;;;;;4.70;99.90;;;;;;5132786;27;19923;-50
2021/11/24 00:21:30;;;;;;;;;;;4.70;99.90;;;;;;5134450;27;19923;-49
2021/11/24 00:23:57;;;;;;;;;;;4.70;99.90;;;;;;5133730;27;19969;-49
2021/11/24 00:26:23;;;;;;;;;;;4.70;99.90;;;;;;5134304;27;19984;-50
2021/11/24 00:28:50;;;;;;;;;;;4.70;99.90;;;;;;5134056;27;19923;-49
2021/11/24 00:31:17;;;;;;;;;;;4.70;99.90;;;;;;5133912;27;19976;-50
2021/11/24 00:33:43;;;;;;;;;;;4.70;99.90;;;;;;5133393;27;19931;-49
2021/11/24 00:36:12;;;;;;;;;;;4.70;99.90;;;;;;5134101;27;19924;-49
2021/11/24 00:41:41;;;;;;;;;;;4.70;99.90;;;;;;5133911;27;19918;-49
2021/11/24 00:44:08;;;;;;;;;;;4.70;99.90;;;;;;5128286;27;20031;-49
2021/11/24 00:46:35;;;;;;;;;;;4.70;99.90;;;;;;5126467;27;19931;-49
2021/11/24 00:49:02;;;;;;;;;;;4.80;99.90;;;;;;5127904;27;19931;-49
2021/11/24 00:51:30;;;;;;;;;;;4.80;99.90;;;;;;5132555;27;19945;-49
2021/11/24 00:53:56;;;;;;;;;;;4.70;99.90;;;;;;5131560;27;19927;-48
2021/11/24 00:56:23;;;;;;;;;;;4.60;99.90;;;;;;5131681;27;19935;-49
2021/11/24 00:59:09;;;;;;;;;;;4.50;99.90;;;;;;5133512;27;19923;-48
2021/11/24 01:01:37;;;;;;;;;;;4.50;99.90;;;;;;5133024;27;19980;-49
2021/11/24 01:04:04;;;;;;;;;;;4.40;99.90;;;;;;5132930;27;19931;-49
2021/11/24 01:06:32;;;;;;;;;;;4.40;99.90;;;;;;5132201;27;19923;-49
2021/11/24 01:08:59;;;;;;;;;;;4.40;99.90;;;;;;5136480;27;19923;-49
2021/11/24 01:11:25;;;;;;;;;;;4.40;99.90;;;;;;5129263;27;19929;-50
2021/11/24 01:13:52;;;;;;;;;;;4.40;99.90;;;;;;5129476;27;20381;-49
2021/11/24 01:16:19;;;;;;;;;;;4.40;99.90;;;;;;5131085;27;20003;-49
2021/11/24 01:18:46;;;;;;;;;;;4.30;99.90;;;;;;5129840;27;20449;-50
2021/11/24 01:21:12;;;;;;;;;;;4.30;99.90;;;;;;5131737;27;19968;-49
2021/11/24 01:23:40;;;;;;;;;;;4.30;99.90;;;;;;5132198;27;19924;-49
2021/11/24 01:26:07;;;;;;;;;;;4.20;99.90;;;;;;5131667;27;19923;-49
2021/11/24 01:28:34;;;;;;;;;;;4.10;99.90;;;;;;5131332;27;19968;-49
2021/11/24 01:31:01;;;;;;;;;;;4.10;99.90;;;;;;5123015;27;19984;-49
2021/11/24 01:33:27;;;;;;;;;;;4.10;99.90;;;;;;5122544;27;20345;-49
2021/11/24 01:35:54;;;;;;;;;;;4.10;99.90;;;;;;5132507;27;20384;-49
2021/11/24 01:38:21;;;;;;;;;;;4.10;99.90;;;;;;5133159;27;19924;-49
2021/11/24 01:40:49;;;;;;;;;;;4.10;99.90;;;;;;5133041;27;19923;-50
2021/11/24 01:43:16;;;;;;;;;;;4.10;99.90;;;;;;5132674;27;19972;-50
2021/11/24 01:45:43;;;;;;;;;;;4.20;99.90;;;;;;5133055;27;19924;-49
2021/11/24 01:48:09;;;;;;;;;;;4.20;99.90;;;;;;5132804;27;19976;-49
2021/11/24 01:50:36;;;;;;;;;;;4.30;99.90;;;;;;5133001;27;19927;-50
2021/11/24 01:53:03;;;;;;;;;;;4.40;99.90;;;;;;5132520;28;19927;-49
2021/11/24 01:55:30;;;;;;;;;;;4.50;99.90;;;;;;5133072;28;19923;-49
2021/11/24 01:57:58;;;;;;;;;;;4.40;99.90;;;;;;5132781;28;19976;-49
2021/11/24 02:00:26;;;;;;;;;;;4.30;99.90;;;;;;5132974;28;20354;-49
2021/11/24 02:02:53;;;;;;;;;;;4.30;99.90;;;;;;5133342;28;19923;-49
2021/11/24 02:05:20;;;;;;;;;;;4.40;99.90;;;;;;5132589;28;20382;-49
2021/11/24 02:10:13;;;;;;;;;;;4.50;99.90;;;;;;5135916;22;20286;-51
2021/11/24 02:12:43;;;;;;;;;;;4.40;99.90;;;;;;5111773;28;20385;-52
2021/11/24 02:15:12;;;;;;;;;;;4.30;99.90;;;;;;5112470;28;19924;-52
2021/11/24 02:17:39;;;;;;;;;;;4.30;99.90;;;;;;5106635;28;19924;-52
2021/11/24 02:20:06;;;;;;;;;;;4.50;99.90;;;;;;5111836;28;19977;-52
2021/11/24 02:22:34;;;;;;;;;;;4.60;99.90;;;;;;5111489;28;19953;-52
2021/11/24 02:25:01;;;;;;;;;;;4.70;99.90;;;;;;5112367;28;19977;-52
2021/11/24 02:27:28;;;;;;;;;;;4.80;99.90;;;;;;5112220;28;19928;-51
2021/11/24 02:29:54;;;;;;;;;;;4.60;99.90;;;;;;5112274;28;19990;-52
2021/11/24 02:32:21;;;;;;;;;;;4.60;99.90;;;;;;5112083;28;19989;-52
2021/11/24 02:34:48;;;;;;;;;;;4.50;99.90;;;;;;5111748;28;19924;-52
2021/11/24 02:37:15;;;;;;;;;;;4.50;99.90;;;;;;5111803;28;19924;-52
2021/11/24 02:39:43;;;;;;;;;;;4.50;99.90;;;;;;5112504;28;19928;-52
2021/11/24 02:42:10;;;;;;;;;;;4.50;99.90;;;;;;5114595;28;19927;-52
2021/11/24 02:44:38;;;;;;;;;;;4.50;99.90;;;;;;5115864;28;20022;-52
2021/11/24 02:47:09;;;;;;;;;;;4.60;99.90;;;;;;5115443;28;20606;-52
2021/11/24 02:49:36;;;;;;;;;;;4.70;99.90;;;;;;5115681;28;19953;-52
2021/11/24 02:52:04;;;;;;;;;;;4.60;99.90;;;;;;5114839;28;19957;-52
2021/11/24 02:54:31;;;;;;;;;;;4.60;99.90;;;;;;5115796;28;19924;-52
2021/11/24 02:57:00;;;;;;;;;;;4.50;99.90;;;;;;5115651;28;19924;-51
2021/11/24 02:59:27;;;;;;;;;;;4.50;99.90;;;;;;5115451;28;20026;-52
2021/11/24 03:01:54;;;;;;;;;;;4.50;99.90;;;;;;5115318;28;19927;-52
2021/11/24 03:04:21;;;;;;;;;;;4.60;99.90;;;;;;5115464;28;19928;-52
2021/11/24 03:06:47;;;;;;;;;;;4.70;99.90;;;;;;5114705;28;19931;-52
2021/11/24 03:09:14;;;;;;;;;;;4.80;99.90;;;;;;5114976;28;19953;-52
2021/11/24 03:11:41;;;;;;;;;;;4.90;99.90;;;;;;5115340;28;19984;-52
2021/11/24 03:14:09;;;;;;;;;;;4.90;99.90;;;;;;5115570;28;19969;-52
2021/11/24 03:16:36;;;;;;;;;;;5.00;99.90;;;;;;5114763;28;20451;-52
2021/11/24 03:19:02;;;;;;;;;;;5.10;99.90;;;;;;5115001;28;19924;-52
2021/11/24 03:21:29;;;;;;;;;;;5.10;99.90;;;;;;5114841;28;19924;-52
2021/11/24 03:23:56;;;;;;;;;;;5.10;99.90;;;;;;5114919;28;20008;-52
2021/11/24 03:26:23;;;;;;;;;;;5.20;99.90;;;;;;5114904;28;19930;-52
2021/11/24 03:28:49;;;;;;;;;;;5.10;99.90;;;;;;5115148;28;19924;-52
2021/11/24 03:31:18;;;;;;;;;;;5.10;99.90;;;;;;5114558;28;19953;-52
2021/11/24 03:33:44;;;;;;;;;;;5.10;99.90;;;;;;5114939;28;20289;-52
2021/11/24 03:36:11;;;;;;;;;;;5.00;99.90;;;;;;5114650;28;20389;-52
2021/11/24 03:38:38;;;;;;;;;;;5.00;99.90;;;;;;5114665;28;19924;-52
2021/11/24 03:41:05;;;;;;;;;;;5.00;99.90;;;;;;5101464;28;19924;-52
2021/11/24 03:43:31;;;;;;;;;;;5.10;99.90;;;;;;5094533;28;19924;-52
2021/11/24 03:45:58;;;;;;;;;;;5.00;99.90;;;;;;5102292;28;20020;-52
2021/11/24 03:48:26;;;;;;;;;;;4.90;99.90;;;;;;5114876;28;19924;-52
2021/11/24 03:50:53;;;;;;;;;;;4.90;99.90;;;;;;5114768;28;19928;-52
2021/11/24 03:53:20;;;;;;;;;;;4.90;99.90;;;;;;5114319;28;19928;-52
2021/11/24 03:55:47;;;;;;;;;;;4.90;99.90;;;;;;5113495;28;20401;-52
2021/11/24 03:58:14;;;;;;;;;;;4.90;99.90;;;;;;5114809;28;19989;-52
2021/11/24 04:00:40;;;;;;;;;;;4.90;99.90;;;;;;5114227;28;19923;-52
2021/11/24 04:03:07;;;;;;;;;;;4.90;99.90;;;;;;5114732;28;20064;-52
2021/11/24 04:05:36;;;;;;;;;;;4.90;99.90;;;;;;5114137;28;19927;-52
2021/11/24 04:08:02;;;;;;;;;;;4.90;99.90;;;;;;5114088;28;20423;-52
2021/11/24 04:10:29;;;;;;;;;;;4.90;99.90;;;;;;5113908;28;19977;-52
2021/11/24 04:12:56;;;;;;;;;;;4.90;99.90;;;;;;5114201;28;20335;-52
2021/11/24 04:15:23;;;;;;;;;;;4.90;99.90;;;;;;5113946;28;19924;-52
2021/11/24 04:17:49;;;;;;;;;;;4.90;99.90;;;;;;5114338;28;19928;-52
2021/11/24 04:20:18;;;;;;;;;;;4.90;99.90;;;;;;5114027;28;19923;-52
2021/11/24 04:22:47;;;;;;;;;;;4.80;99.90;;;;;;5113911;28;20278;-52
2021/11/24 04:25:14;;;;;;;;;;;4.60;99.90;;;;;;5113751;28;20343;-52
2021/11/24 04:27:41;;;;;;;;;;;4.70;99.90;;;;;;5113538;28;20297;-52
2021/11/24 04:30:08;;;;;;;;;;;4.50;99.90;;;;;;5114126;28;19928;-52
2021/11/24 04:32:37;;;;;;;;;;;4.50;99.90;;;;;;5113999;28;19923;-52
2021/11/24 04:35:04;;;;;;;;;;;4.50;99.90;;;;;;5113884;28;19985;-52
2021/11/24 04:37:30;;;;;;;;;;;4.60;99.90;;;;;;5113703;28;19977;-52
2021/11/24 04:39:59;;;;;;;;;;;4.70;99.90;;;;;;5112922;28;20436;-52
2021/11/24 04:42:25;;;;;;;;;;;4.60;99.90;;;;;;5095523;28;19978;-51
2021/11/24 04:44:52;;;;;;;;;;;4.60;99.90;;;;;;5097108;28;19924;-52
2021/11/24 04:47:19;;;;;;;;;;;4.50;99.90;;;;;;5111216;28;19931;-51
2021/11/24 04:49:46;;;;;;;;;;;4.50;99.90;;;;;;5113653;28;19946;-52
2021/11/24 04:52:13;;;;;;;;;;;4.60;99.90;;;;;;5113228;28;19923;-51
2021/11/24 04:54:40;;;;;;;;;;;4.40;99.90;;;;;;5112715;28;20302;-51
2021/11/24 04:57:08;;;;;;;;;;;4.40;99.90;;;;;;5112838;28;20382;-52
2021/11/24 04:59:35;;;;;;;;;;;4.40;99.90;;;;;;5110410;28;19924;-51
2021/11/24 05:02:02;;;;;;;;;;;4.40;99.90;;;;;;5112321;28;19976;-51
2021/11/24 05:04:29;;;;;;;;;;;4.30;99.90;;;;;;5112668;28;19930;-51
2021/11/24 05:06:55;;;;;;;;;;;4.30;99.90;;;;;;5112996;28;19924;-51
2021/11/24 05:09:22;;;;;;;;;;;4.10;99.90;;;;;;5112865;28;19923;-51
2021/11/24 05:11:49;;;;;;;;;;;4.20;99.90;;;;;;5113261;28;19974;-52
2021/11/24 05:14:21;;;;;;;;;;;4.20;99.90;;;;;;5113119;28;20385;-51
2021/11/24 05:16:49;;;;;;;;;;;4.20;99.90;;;;;;5112453;28;19928;-51
2021/11/24 05:19:19;;;;;;;;;;;4.20;99.90;;;;;;5112568;28;19930;-51
2021/11/24 05:21:49;;;;;;;;;;;4.10;99.90;;;;;;5112389;28;19924;-52
2021/11/24 05:24:16;;;;;;;;;;;4.20;99.90;;;;;;5113270;28;19946;-51
2021/11/24 05:26:43;;;;;;;;;;;4.00;99.90;;;;;;5112483;28;19924;-51
2021/11/24 05:29:09;;;;;;;;;;;3.90;99.90;;;;;;5112983;28;20006;-52
2021/11/24 05:31:37;;;;;;;;;;;3.80;99.90;;;;;;5111647;28;19968;-51
2021/11/24 05:34:05;;;;;;;;;;;3.90;99.90;;;;;;5112689;28;20458;-52
2021/11/24 05:36:31;;;;;;;;;;;3.90;99.90;;;;;;5113039;28;19928;-52
2021/11/24 05:38:58;;;;;;;;;;;3.90;99.90;;;;;;5112713;28;20381;-51
2021/11/24 05:41:25;;;;;;;;;;;3.80;99.90;;;;;;5112527;28;19968;-52
2021/11/24 05:43:56;;;;;;;;;;;3.90;99.90;;;;;;5112497;28;19931;-51
2021/11/24 05:46:28;;;;;;;;;;;4.10;99.90;;;;;;5112657;28;20309;-52
2021/11/24 05:48:56;;;;;;;;;;;4.10;99.90;;;;;;5111991;28;20432;-51
2021/11/24 05:51:23;;;;;;;;;;;4.00;99.90;;;;;;5110678;28;20034;-52
2021/11/24 05:53:50;;;;;;;;;;;4.00;99.90;;;;;;5111083;28;19923;-52
2021/11/24 05:56:17;;;;;;;;;;;4.00;99.90;;;;;;5110407;28;19977;-52
2021/11/24 05:58:43;;;;;;;;;;;4.00;99.90;;;;;;5111125;28;19931;-52
2021/11/24 06:01:10;;;;;;;;;;;4.10;99.90;;;;;;5110713;28;19923;-51
2021/11/24 06:03:37;;;;;;;;;;;4.10;99.90;;;;;;5111981;28;19923;-52
2021/11/24 06:06:05;;;;;;;;;;;4.10;99.90;;;;;;5112619;28;19924;-52
2021/11/24 06:08:32;;;;;;;;;;;3.90;99.90;;;;;;5112298;28;19923;-52
2021/11/24 06:11:00;;;;;;;;;;;4.00;99.90;;;;;;5112228;28;19924;-52
2021/11/24 06:13:27;;;;;;;;;;;3.90;99.90;;;;;;5112461;28;19927;-51
2021/11/24 06:15:54;;;;;;;;;;;4.00;99.90;;;;;;5114693;28;19976;-52
2021/11/24 06:18:21;;;;;;;;;;;3.90;99.90;;;;;;5116592;28;19928;-51
2021/11/24 06:20:48;;;;;;;;;;;3.90;99.90;;;;;;5116371;28;19923;-51
2021/11/24 06:23:16;;;;;;;;;;;3.90;99.90;;;;;;5116431;28;20282;-51
2021/11/24 06:25:43;;;;;;;;;;;3.80;99.90;;;;;;5115465;28;19923;-51
2021/11/24 06:28:12;;;;;;;;;;;3.80;99.90;;;;;;5116194;28;19977;-51
2021/11/24 06:30:39;;;;;;;;;;;3.90;99.90;;;;;;5115355;28;19977;-52
2021/11/24 06:33:05;;;;;;;;;;;3.80;99.90;;;;;;5116219;28;19924;-52
2021/11/24 06:35:32;;;;;;;;;;;3.80;99.90;;;;;;5116396;28;19928;-51
2021/11/24 06:37:59;;;;;;;;;;;3.70;99.90;;;;;;5115787;28;20393;-50
2021/11/24 06:40:27;;;;;;;;;;;3.70;99.90;;;;;;5115579;28;20131;-51
2021/11/24 06:42:54;;;;;;;;;;;3.70;99.90;;;;;;5116126;28;19923;-51
2021/11/24 06:45:22;;;;;;;;;;;3.50;99.90;;;;;;5115658;28;19976;-52
2021/11/24 06:47:49;;;;;;;;;;;3.50;99.90;;;;;;5115190;28;20015;-52
2021/11/24 06:50:16;;;;;;;;;;;3.50;99.90;;;;;;5115493;28;19936;-52
2021/11/24 06:52:43;;;;;;;;;;;3.50;99.90;;;;;;5115833;28;19984;-52
2021/11/24 06:55:11;;;;;;;;;;;3.50;99.90;;;;;;5115461;28;19927;-52
2021/11/24 06:57:39;;;;;;;;;;;3.50;99.90;;;;;;5110918;28;19924;-52
2021/11/24 07:00:07;;;;;;;;;;;3.50;99.90;;;;;;5113756;28;19977;-52
2021/11/24 07:02:34;;;;;;;;;;;3.60;99.90;;;;;;5112164;28;19928;-52
2021/11/24 07:05:01;;;;;;;;;;;3.60;99.90;;;;;;5113862;28;19930;-52
2021/11/24 07:07:27;;;;;;;;;;;3.70;99.90;;;;;;5114511;28;19923;-52
2021/11/24 07:09:54;;;;;;;;;;;3.70;99.90;;;;;;5113665;28;19969;-52
2021/11/24 07:12:23;;;;;;;;;;;3.70;99.90;;;;;;5115676;28;19928;-52
2021/11/24 07:14:52;;;;;;;;;;;3.70;99.90;;;;;;5115050;28;19977;-52
2021/11/24 07:17:22;;;;;;;;;;;3.80;99.90;;;;;;5115181;28;19928;-52
2021/11/24 07:19:49;;;;;;;;;;;3.80;99.90;;;;;;5115047;27;19931;-52
2021/11/24 07:22:16;;;;;;;;;;;3.90;99.90;;;;;;5115331;28;19923;-51
2021/11/24 07:24:42;;;;;;;;;;;3.80;99.90;;;;;;5115046;28;20355;-53
2021/11/24 07:27:09;;;;;;;;;;;3.80;99.90;;;;;;5112693;28;19985;-52
2021/11/24 07:29:36;;;;;;;;;;;4.00;99.90;;;;;;5114851;28;19928;-52
2021/11/24 07:32:04;;;;;;;;;;;4.20;99.90;;;;;;5114792;28;20359;-52
2021/11/24 07:34:31;;;;;;;;;;;4.30;99.90;;;;;;5115073;28;19927;-51
2021/11/24 07:36:58;;;;;;;;;;;4.20;99.90;;;;;;5115313;28;19965;-52
2021/11/24 07:39:25;;;;;;;;;;;4.40;99.90;;;;;;5115129;28;20015;-52
2021/11/24 07:41:52;;;;;;;;;;;4.60;99.90;;;;;;5114919;28;19969;-52
2021/11/24 07:44:18;;;;;;;;;;;4.60;99.90;;;;;;5113859;28;19923;-52
2021/11/24 07:46:45;;;;;;;;;;;4.60;99.90;;;;;;5114744;28;19932;-52
2021/11/24 07:49:14;;;;;;;;;;;4.70;99.90;;;;;;5114809;28;19923;-52
2021/11/24 07:51:41;;;;;;;;;;;4.80;99.90;;;;;;5113377;28;19924;-52
2021/11/24 07:54:08;;;;;;;;;;;4.90;99.90;;;;;;5113250;28;19931;-52
2021/11/24 07:56:35;;;;;;;;;;;4.90;99.90;;;;;;5114307;28;19924;-51
2021/11/24 07:59:02;;;;;;;;;;;4.80;99.90;;;;;;5113620;28;19930;-52
2021/11/24 08:01:28;;;;;;;;;;;4.90;99.90;;;;;;5110421;28;19939;-52
2021/11/24 08:03:55;;;;;;;;;;;5.10;99.90;;;;;;5114029;28;19977;-52
2021/11/24 08:06:23;;;;;;;;;;;5.20;99.90;;;;;;5114428;28;19924;-52
2021/11/24 08:08:50;;;;;;;;;;;5.10;99.90;;;;;;5137252;22;19924;-50
2021/11/24 08:11:17;;;;;;;;;;;5.20;99.90;;;;;;5107307;28;19928;-50
2021/11/24 08:13:43;;;;;;;;;;;5.40;99.90;;;;;;5106898;27;19977;-49
2021/11/24 08:16:10;;;;;;;;;;;5.50;99.90;;;;;;5106573;28;19970;-50
2021/11/24 08:18:37;;;;;;;;;;;5.70;99.90;;;;;;5101055;28;19924;-50
2021/11/24 08:21:04;;;;;;;;;;;5.80;99.90;;;;;;5108407;28;20382;-50
2021/11/24 08:23:32;;;;;;;;;;;6.00;99.90;;;;;;5107600;28;20447;-50
2021/11/24 08:25:59;;;;;;;;;;;6.20;99.90;;;;;;5101810;28;19945;-50
2021/11/24 08:28:26;;;;;;;;;;;6.50;99.90;;;;;;5100278;28;19935;-49
2021/11/24 08:30:52;;;;;;;;;;;6.90;99.90;;;;;;5098477;28;20326;-50
2021/11/24 08:33:19;;;;;;;;;;;7.30;99.90;;;;;;5103925;28;19965;-50
2021/11/24 08:35:46;;;;;;;;;;;7.70;99.90;;;;;;5106973;28;19924;-50
2021/11/24 08:44:21;;;;;;;;;;;8.20;99.90;;;;;;5093393;28;20405;-49
2021/11/24 08:46:48;;;;;;;;;;;8.20;99.90;;;;;;5100533;28;19969;-50
2021/11/24 08:49:15;;;;;;;;;;;8.40;99.90;;;;;;5099438;28;20597;-50
2021/11/24 08:51:41;;;;;;;;;;;8.60;99.90;;;;;;5111325;28;19939;-50
2021/11/24 08:54:11;;;;;;;;;;;8.30;99.90;;;;;;5109375;28;19924;-50
2021/11/24 08:56:38;;;;;;;;;;;7.50;99.90;;;;;;5099549;28;19970;-50
2021/11/24 08:59:05;;;;;;;;;;;7.30;99.90;;;;;;5094163;28;19924;-50
2021/11/24 09:01:33;;;;;;;;;;;8.00;99.90;;;;;;5104734;28;19977;-50
2021/11/24 09:04:00;;;;;;;;;;;8.10;99.90;;;;;;5101783;28;19970;-50
2021/11/24 09:06:27;;;;;;;;;;;8.10;99.90;;;;;;5107570;28;19984;-50
2021/11/24 09:08:54;;;;;;;;;;;8.20;99.90;;;;;;5104300;28;19969;-50
2021/11/24 09:11:21;;;;;;;;;;;8.80;99.90;;;;;;5109024;28;19992;-51
2021/11/24 09:13:47;;;;;;;;;;;9.20;99.90;;;;;;5103969;27;20485;-52
2021/11/24 09:16:15;;;;;;;;;;;10.20;99.90;;;;;;5100510;27;19947;-52
2021/11/24 09:18:43;;;;;;;;;;;11.30;99.90;;;;;;5100965;28;20397;-51
2021/11/24 09:21:10;;;;;;;;;;;11.80;99.90;;;;;;5102575;28;20336;-51
2021/11/24 09:23:38;;;;;;;;;;;12.10;99.90;;;;;;5106074;28;19934;-52
2021/11/24 09:26:15;;;;;;;;;;;12.70;99.90;;;;;;5101037;28;19930;-51
2021/11/24 09:28:42;;;;;;;;;;;12.30;99.90;;;;;;5102762;28;20523;-51
2021/11/24 09:31:09;;;;;;;;;;;12.20;99.90;;;;;;5094702;28;19924;-51
2021/11/24 09:33:37;;;;;;;;;;;12.00;99.90;;;;;;5102428;28;20014;-50
2021/11/24 09:36:06;;;;;;;;;;;12.10;99.90;;;;;;5099090;28;19938;-52
2021/11/24 09:38:32;;;;;;;;;;;11.90;99.90;;;;;;5105232;28;19936;-51
2021/11/24 09:41:04;;;;;;;;;;;11.40;99.90;;;;;;5102808;28;19923;-51
2021/11/24 09:43:34;;;;;;;;;;;10.60;99.90;;;;;;5103396;28;19930;-51
2021/11/24 09:46:01;;;;;;;;;;;10.10;99.90;;;;;;5097457;28;20294;-51
2021/11/24 09:48:28;;;;;;;;;;;9.50;99.90;;;;;;5104495;28;20348;-50
2021/11/24 09:50:55;;;;;;;;;;;9.00;99.90;;;;;;5105986;27;20386;-52
2021/11/24 09:53:24;;;;;;;;;;;8.70;99.90;;;;;;5103454;28;19938;-51
2021/11/24 09:55:52;;;;;;;;;;;8.40;99.90;;;;;;5101263;28;19932;-53
2021/11/24 09:58:19;;;;;;;;;;;8.20;99.90;;;;;;5099466;28;20332;-52
2021/11/24 10:00:46;;;;;;;;;;;8.60;99.90;;;;;;5098663;28;19931;-51
2021/11/24 10:03:15;;;;;;;;;;;9.10;99.90;;;;;;5099415;28;19939;-51
2021/11/24 10:05:42;;;;;;;;;;;9.60;99.90;;;;;;5102852;28;20408;-51
2021/11/24 10:08:10;;;;;;;;;;;9.80;99.90;;;;;;5099746;28;19924;-51
2021/11/24 10:10:38;;;;;;;;;;;9.60;99.90;;;;;;5105609;28;19967;-51
2021/11/24 10:13:05;;;;;;;;;;;10.00;99.90;;;;;;5095954;28;20405;-51
2021/11/24 10:15:39;;;;;;;;;;;10.30;99.90;;;;;;5101272;28;19924;-52
2021/11/24 10:18:26;;;;;;;;;;;10.50;99.90;;;;;;5103675;28;19931;-51
2021/11/24 10:20:55;;;;;;;;;;;10.10;99.90;;;;;;5099777;28;19932;-51
2021/11/24 10:23:26;;;;;;;;;;;10.00;99.90;;;;;;5101735;28;20360;-50
2021/11/24 10:25:54;;;;;;;;;;;9.90;99.90;;;;;;5103776;28;19932;-51
2021/11/24 10:28:26;;;;;;;;;;;10.00;99.90;;;;;;5099921;28;19928;-51
2021/11/24 10:30:55;;;;;;;;;;;9.70;99.90;;;;;;5104522;28;20062;-51
2021/11/24 10:33:22;;;;;;;;;;;9.70;99.90;;;;;;5099293;28;20011;-52
2021/11/24 10:36:03;;;;;;;;;;;9.40;99.90;;;;;;5098445;28;19966;-52
2021/11/24 10:38:37;;;;;;;;;;;9.30;99.90;;;;;;5106350;28;19927;-50
2021/11/24 10:41:05;;;;;;;;;;;9.40;99.90;;;;;;5101837;28;20398;-50
2021/11/24 10:43:40;;;;;;;;;;;9.10;99.90;;;;;;5099450;28;19977;-51
2021/11/24 10:46:08;;;;;;;;;;;9.00;99.90;;;;;;5105775;28;19931;-51
2021/11/24 10:48:35;;;;;;;;;;;9.20;99.90;;;;;;5101895;28;19924;-51
2021/11/24 10:51:04;;;;;;;;;;;9.40;99.90;;;;;;5101085;28;19974;-50
2021/11/24 10:53:30;;;;;;;;;;;9.60;99.90;;;;;;5098803;28;19925;-52
2021/11/24 10:56:07;;;;;;;;;;;9.70;99.90;;;;;;5103471;28;19928;-50
2021/11/24 10:58:38;;;;;;;;;;;9.60;99.90;;;;;;5094364;28;19924;-51
2021/11/24 11:01:05;;;;;;;;;;;9.50;99.90;;;;;;5103731;28;19923;-51
2021/11/24 11:03:35;;;;;;;;;;;8.90;99.90;;;;;;5105166;28;19969;-50
2021/11/24 11:06:02;;;;;;;;;;;8.90;99.90;;;;;;5103216;27;19927;-53
2021/11/24 11:08:29;;;;;;;;;;;8.60;99.90;;;;;;5106087;28;19928;-51
2021/11/24 11:10:59;;;;;;;;;;;8.60;99.90;;;;;;5098381;28;19925;-50
2021/11/24 11:13:32;;;;;;;;;;;8.70;99.90;;;;;;5106175;28;20467;-50
2021/11/24 11:15:58;;;;;;;;;;;8.80;99.90;;;;;;5111427;28;19924;-50
2021/11/24 11:18:26;;;;;;;;;;;8.20;99.90;;;;;;5100670;27;19928;-51
2021/11/24 11:20:54;;;;;;;;;;;7.90;99.90;;;;;;5109398;28;19932;-50
2021/11/24 11:23:23;;;;;;;;;;;7.50;99.90;;;;;;5103290;28;20301;-50
2021/11/24 11:25:52;;;;;;;;;;;7.00;99.90;;;;;;5103068;28;19954;-50
2021/11/24 11:28:19;;;;;;;;;;;7.20;99.90;;;;;;5100481;28;19924;-52
2021/11/24 11:30:50;;;;;;;;;;;7.30;99.90;;;;;;5102990;28;19981;-50
2021/11/24 11:33:17;;;;;;;;;;;7.40;99.90;;;;;;5099616;28;20393;-52
2021/11/24 11:35:45;;;;;;;;;;;7.50;99.90;;;;;;5096698;28;20014;-50
2021/11/24 11:38:11;;;;;;;;;;;7.40;99.90;;;;;;5104021;27;19957;-50
2021/11/24 11:40:39;;;;;;;;;;;7.20;99.90;;;;;;5101773;28;19928;-49
2021/11/24 11:43:07;;;;;;;;;;;7.10;99.90;;;;;;5098736;28;20450;-50
2021/11/24 11:45:35;;;;;;;;;;;7.40;99.90;;;;;;5094895;28;19930;-50
2021/11/24 11:48:05;;;;;;;;;;;7.70;99.90;;;;;;5105472;28;19937;-50
2021/11/24 11:50:53;;;;;;;;;;;7.90;99.90;;;;;;5112269;28;19935;-50
2021/11/24 11:53:21;;;;;;;;;;;7.70;99.90;;;;;;5099674;28;19924;-49
2021/11/24 11:55:49;;;;;;;;;;;7.00;99.90;;;;;;5103749;28;19924;-49
2021/11/24 11:58:22;;;;;;;;;;;6.90;99.90;;;;;;5101588;28;19931;-49
2021/11/24 12:01:03;;;;;;;;;;;6.90;99.90;;;;;;5106420;28;20030;-48
2021/11/24 12:03:45;;;;;;;;;;;6.90;99.90;;;;;;5097614;28;19927;-49
2021/11/24 12:06:20;;;;;;;;;;;6.90;99.90;;;;;;5103581;28;20347;-48
2021/11/24 12:09:02;;;;;;;;;;;6.90;99.90;;;;;;5106721;28;20435;-49
2021/11/24 12:11:59;;;;;;;;;;;6.80;99.90;;;;;;5108328;27;19924;-48
2021/11/24 12:14:40;;;;;;;;;;;6.90;99.90;;;;;;5101675;28;19981;-49
2021/11/24 12:17:22;;;;;;;;;;;6.70;99.90;;;;;;5108586;28;19973;-48
2021/11/24 12:19:49;;;;;;;;;;;6.60;99.90;;;;;;5110559;28;20382;-49
2021/11/24 12:22:17;;;;;;;;;;;6.50;99.90;;;;;;5098147;28;19969;-49
2021/11/24 12:24:46;;;;;;;;;;;6.50;99.90;;;;;;5099659;28;20436;-48
2021/11/24 12:27:12;;;;;;;;;;;6.50;99.90;;;;;;5102718;28;19931;-49
2021/11/24 12:29:46;;;;;;;;;;;6.50;99.90;;;;;;5106114;28;19923;-49
2021/11/24 12:32:15;;;;;;;;;;;6.30;99.90;;;;;;5095144;28;19978;-49
2021/11/24 12:34:48;;;;;;;;;;;6.40;99.90;;;;;;5105408;28;19928;-49
2021/11/24 12:37:23;;;;;;;;;;;6.30;99.90;;;;;;5103777;28;20377;-49
2021/11/24 12:39:50;;;;;;;;;;;6.20;99.90;;;;;;5096029;28;19969;-49
2021/11/24 12:42:24;;;;;;;;;;;6.00;99.90;;;;;;5105908;28;19976;-50
2021/11/24 12:44:51;;;;;;;;;;;6.10;99.90;;;;;;5104436;28;19966;-50
2021/11/24 12:47:21;;;;;;;;;;;6.10;99.90;;;;;;5105631;28;20504;-48
2021/11/24 12:49:48;;;;;;;;;;;6.00;99.90;;;;;;5103225;28;19972;-49
2021/11/24 12:52:15;;;;;;;;;;;6.10;99.90;;;;;;5095418;27;19928;-48
2021/11/24 12:54:43;;;;;;;;;;;6.20;99.90;;;;;;5103432;27;20335;-50
2021/11/24 12:57:11;;;;;;;;;;;6.20;99.90;;;;;;5103093;28;19928;-49
2021/11/24 12:59:40;;;;;;;;;;;6.30;99.90;;;;;;5106950;27;19928;-49
2021/11/24 13:02:09;;;;;;;;;;;6.20;99.90;;;;;;5099240;27;19932;-50
2021/11/24 13:04:37;;;;;;;;;;;6.00;99.90;;;;;;5102534;27;19946;-50
2021/11/24 13:07:04;;;;;;;;;;;5.90;99.90;;;;;;5103105;28;19932;-49
2021/11/24 13:09:36;;;;;;;;;;;5.90;99.90;;;;;;5105425;28;19969;-50
2021/11/24 13:12:08;;;;;;;;;;;5.90;99.90;;;;;;5099208;28;20385;-50
2021/11/24 13:14:36;;;;;;;;;;;5.80;99.90;;;;;;5106773;27;19924;-50
2021/11/24 13:17:05;;;;;;;;;;;5.80;99.90;;;;;;5103563;28;20008;-49
2021/11/24 13:19:38;;;;;;;;;;;5.80;99.90;;;;;;5103960;28;19935;-49
2021/11/24 13:22:06;;;;;;;;;;;5.90;99.90;;;;;;5096211;28;19931;-50
2021/11/24 13:24:32;;;;;;;;;;;5.70;99.90;;;;;;5104019;28;20368;-49
2021/11/24 13:27:00;;;;;;;;;;;5.50;99.90;;;;;;5106629;28;19923;-50
2021/11/24 13:29:31;;;;;;;;;;;5.40;99.90;;;;;;5100305;28;19978;-49
2021/11/24 13:32:13;;;;;;;;;;;5.50;99.90;;;;;;5100587;28;20390;-50
2021/11/24 13:34:40;;;;;;;;;;;5.60;99.90;;;;;;5096655;28;20048;-49
2021/11/24 13:37:07;;;;;;;;;;;5.50;99.90;;;;;;5102949;28;20375;-49
2021/11/24 13:39:34;;;;;;;;;;;5.50;99.90;;;;;;5103857;28;19924;-50
2021/11/24 13:42:08;;;;;;;;;;;5.60;99.90;;;;;;5102492;28;20454;-48
2021/11/24 13:44:46;;;;;;;;;;;5.70;99.90;;;;;;5112141;27;19939;-49
2021/11/24 13:47:13;;;;;;;;;;;5.70;99.90;;;;;;5105891;27;19976;-50
2021/11/24 13:49:43;;;;;;;;;;;5.60;99.90;;;;;;5102399;28;19928;-49
2021/11/24 13:52:11;;;;;;;;;;;5.60;99.90;;;;;;5096500;28;19977;-50
2021/11/24 13:54:39;;;;;;;;;;;5.60;99.90;;;;;;5106847;27;19928;-49
2021/11/24 13:57:06;;;;;;;;;;;5.60;99.90;;;;;;5102481;28;19985;-49
2021/11/24 13:59:34;;;;;;;;;;;5.80;99.90;;;;;;5100373;28;19924;-49
2021/11/24 14:02:03;;;;;;;;;;;5.70;99.90;;;;;;5097769;28;19932;-51
2021/11/24 14:04:32;;;;;;;;;;;5.60;99.90;;;;;;5108969;28;19924;-51
2021/11/24 14:07:03;;;;;;;;;;;5.50;99.90;;;;;;5112403;28;19935;-51
2021/11/24 14:09:31;;;;;;;;;;;5.50;99.90;;;;;;5133923;22;19928;-55
2021/11/24 14:12:03;;;;;;;;;;;5.50;99.90;;;;;;5092337;28;19924;-55
2021/11/24 14:14:41;;;;;;;;;;;5.40;99.90;;;;;;5108848;28;19924;-54
2021/11/24 14:17:09;;;;;;;;;;;5.40;99.90;;;;;;5111402;28;19963;-54
2021/11/24 14:19:36;;;;;;;;;;;5.20;99.90;;;;;;5111738;28;19924;-54
2021/11/24 14:22:05;;;;;;;;;;;5.30;99.90;;;;;;5112393;28;19976;-54
2021/11/24 14:24:31;;;;;;;;;;;5.30;99.90;;;;;;5112434;28;19924;-55
2021/11/24 14:26:59;;;;;;;;;;;5.30;99.90;;;;;;5112043;28;19927;-55
2021/11/24 14:29:26;;;;;;;;;;;5.30;99.90;;;;;;5112487;28;19923;-54
2021/11/24 14:31:54;;;;;;;;;;;5.30;99.90;;;;;;5112046;28;19993;-54
2021/11/24 14:34:22;;;;;;;;;;;5.20;99.90;;;;;;5112529;28;19928;-54
2021/11/24 14:36:49;;;;;;;;;;;5.30;99.90;;;;;;5112645;28;19996;-54
2021/11/24 14:39:16;;;;;;;;;;;5.20;99.90;;;;;;5116414;28;19992;-54
2021/11/24 14:41:45;;;;;;;;;;;5.20;99.90;;;;;;5116196;28;20290;-55
2021/11/24 14:44:12;;;;;;;;;;;5.00;99.90;;;;;;5116130;28;19924;-54
2021/11/24 14:46:39;;;;;;;;;;;4.90;99.90;;;;;;5115887;28;19931;-54
2021/11/24 14:49:06;;;;;;;;;;;4.80;99.90;;;;;;5115741;28;20431;-54
2021/11/24 14:51:34;;;;;;;;;;;4.90;99.90;;;;;;5115823;28;20363;-56
2021/11/24 14:54:02;;;;;;;;;;;4.90;99.90;;;;;;5116048;28;19924;-54